createdAt,value
2023-03-19T00:00:44.809Z,6.25
2023-03-19T00:03:17.490Z,6.78
2023-03-19T00:05:54.054Z,6.25
2023-03-19T00:08:26.988Z,6.22
2023-03-19T00:13:33.580Z,7.22
2023-03-19T00:16:06.919Z,6.55
2023-03-19T00:18:39.648Z,8.05
2023-03-19T00:21:12.341Z,7.15
2023-03-19T00:23:45.058Z,7.07
2023-03-19T00:26:17.726Z,6.65
2023-03-19T00:28:52.052Z,6.32
2023-03-19T00:31:25.632Z,6.47
2023-03-19T00:33:58.992Z,6.47
2023-03-19T00:36:31.645Z,6.00
2023-03-19T00:39:04.557Z,7.40
2023-03-19T00:41:37.887Z,7.18
2023-03-19T00:46:44.616Z,7.65
2023-03-19T00:49:17.815Z,7.43
2023-03-19T00:51:50.889Z,7.50
2023-03-19T00:54:23.913Z,7.35
2023-03-19T00:56:56.872Z,8.30
2023-03-19T00:59:31.030Z,8.00
2023-03-19T01:02:04.307Z,8.95
2023-03-19T01:04:37.358Z,9.73
2023-03-19T01:07:10.134Z,10.10
2023-03-19T01:09:43.066Z,10.07
2023-03-19T01:14:49.717Z,9.95
2023-03-19T01:17:22.942Z,9.98
2023-03-19T01:19:56.380Z,9.57
2023-03-19T01:22:29.311Z,9.55
2023-03-19T01:25:05.816Z,9.45
2023-03-19T01:27:38.458Z,10.25
2023-03-19T01:30:14.371Z,9.68
2023-03-19T01:33:07.385Z,10.52
2023-03-19T01:35:46.617Z,10.50
2023-03-19T01:38:19.710Z,9.90
2023-03-19T01:40:53.268Z,9.98
2023-03-19T01:43:27.975Z,10.32
2023-03-19T01:46:08.379Z,9.75
2023-03-19T01:48:59.863Z,10.32
2023-03-19T01:51:36.858Z,9.45
2023-03-19T01:54:31.188Z,9.98
2023-03-19T01:57:33.390Z,9.85
2023-03-19T02:00:29.282Z,10.32
2023-03-19T02:03:04.724Z,10.02
2023-03-19T02:05:57.554Z,8.88
2023-03-19T02:08:31.877Z,9.30
2023-03-19T02:11:06.413Z,8.85
2023-03-19T02:13:39.989Z,8.35
2023-03-19T02:16:13.015Z,9.25
2023-03-19T02:18:48.832Z,9.48
2023-03-19T02:21:22.597Z,8.93
2023-03-19T02:24:04.237Z,9.45
2023-03-19T02:26:54.951Z,9.98
2023-03-19T02:29:27.649Z,9.77
2023-03-19T02:32:03.969Z,10.40
2023-03-19T02:34:39.250Z,9.93
2023-03-19T02:37:17.514Z,9.55
2023-03-19T02:39:58.713Z,9.93
2023-03-19T02:42:32.799Z,9.40
2023-03-19T02:45:07.233Z,9.63
2023-03-19T02:47:40.207Z,11.43
2023-03-19T02:50:13.397Z,12.35
2023-03-19T02:52:46.341Z,12.88
2023-03-19T02:55:21.380Z,13.80
2023-03-19T02:57:56.033Z,15.07
2023-03-19T03:00:28.776Z,16.23
2023-03-19T03:03:02.808Z,18.20
2023-03-19T03:05:36.697Z,17.67
2023-03-19T03:08:09.396Z,17.67
2023-03-19T03:10:42.208Z,17.63
2023-03-19T03:13:16.295Z,18.80
2023-03-19T03:15:49.279Z,16.65
2023-03-19T03:20:55.037Z,16.75
2023-03-19T03:26:00.624Z,19.67
2023-03-19T03:28:35.290Z,16.90
2023-03-19T03:31:08.950Z,17.27
2023-03-19T03:33:42.050Z,18.40
2023-03-19T03:36:15.180Z,17.77
2023-03-19T03:38:47.935Z,18.27
2023-03-19T03:41:21.453Z,18.52
2023-03-19T03:43:55.565Z,18.70
2023-03-19T03:46:28.608Z,18.77
2023-03-19T03:51:34.573Z,19.58
2023-03-19T03:54:08.080Z,20.55
2023-03-19T03:56:41.025Z,19.27
2023-03-19T03:59:15.281Z,18.48
2023-03-19T04:01:48.319Z,19.30
2023-03-19T04:06:53.996Z,20.17
2023-03-19T04:09:52.974Z,19.80
2023-03-19T04:12:26.265Z,19.98
2023-03-19T04:15:00.643Z,21.50
2023-03-19T04:17:33.853Z,19.30
2023-03-19T04:20:07.677Z,20.02
2023-03-19T04:22:40.481Z,20.25
2023-03-19T04:25:13.339Z,18.80
2023-03-19T04:27:46.907Z,20.50
2023-03-19T04:30:21.252Z,20.20
2023-03-19T04:32:54.072Z,21.02
2023-03-19T04:38:00.034Z,19.05
2023-03-19T04:40:33.221Z,20.30
2023-03-19T04:43:06.242Z,20.45
2023-03-19T04:45:41.805Z,23.65
2023-03-19T04:48:14.505Z,21.45
2023-03-19T04:50:51.780Z,21.63
2023-03-19T04:53:25.265Z,22.38
2023-03-19T04:55:58.023Z,22.38
2023-03-19T04:58:30.879Z,22.55
2023-03-19T05:01:09.245Z,23.20
2023-03-19T05:04:02.435Z,24.55
2023-03-19T05:06:37.662Z,21.95
2023-03-19T05:09:10.908Z,23.77
2023-03-19T05:11:43.569Z,23.52
2023-03-19T05:14:21.762Z,24.13
2023-03-19T05:17:16.272Z,21.92
2023-03-19T05:20:09.492Z,23.98
2023-03-19T05:22:44.838Z,23.63
2023-03-19T05:25:17.578Z,24.20
2023-03-19T05:27:50.907Z,23.83
2023-03-19T05:30:27.293Z,24.38
2023-03-19T05:33:09.753Z,24.80
2023-03-19T05:35:47.094Z,24.23
2023-03-19T05:38:28.661Z,17.17
2023-03-19T05:41:08.971Z,23.48
2023-03-19T05:43:49.792Z,24.38
2023-03-19T05:46:37.736Z,27.02
2023-03-19T05:51:44.613Z,23.42
2023-03-19T05:57:05.197Z,25.30
2023-03-19T05:59:38.009Z,24.85
2023-03-19T06:02:29.285Z,26.35
2023-03-19T06:05:19.170Z,26.52
2023-03-19T06:07:52.302Z,26.60
2023-03-19T06:10:43.062Z,27.52
2023-03-19T06:13:17.063Z,30.42
2023-03-19T06:16:04.833Z,28.83
2023-03-19T06:18:41.006Z,29.52
2023-03-19T06:21:19.613Z,27.50
2023-03-19T06:23:52.681Z,28.98
2023-03-19T06:26:32.371Z,29.02
2023-03-19T06:29:06.171Z,28.23
2023-03-19T06:31:41.643Z,28.25
2023-03-19T06:34:27.635Z,28.55
2023-03-19T06:39:35.035Z,25.58
2023-03-19T06:42:08.218Z,28.42
2023-03-19T06:44:41.213Z,27.75
2023-03-19T06:47:14.282Z,25.05
2023-03-19T06:49:47.822Z,28.13
2023-03-19T06:52:22.339Z,26.83
2023-03-19T06:54:55.306Z,28.95
2023-03-19T07:00:00.907Z,25.27
2023-03-19T07:02:33.705Z,26.95
2023-03-19T07:05:07.509Z,25.50
2023-03-19T07:07:41.714Z,26.25
2023-03-19T07:10:14.754Z,24.85
2023-03-19T07:12:47.491Z,25.90
2023-03-19T07:15:21.507Z,24.40
2023-03-19T07:17:54.187Z,24.38
2023-03-19T07:20:27.054Z,23.88
2023-03-19T07:23:01.264Z,24.23
2023-03-19T07:25:34.142Z,22.80
2023-03-19T07:30:39.912Z,22.20
2023-03-19T07:33:14.060Z,24.05
2023-03-19T07:35:46.965Z,23.83
2023-03-19T07:38:21.154Z,23.13
2023-03-19T07:41:01.898Z,23.23
2023-03-19T07:43:35.375Z,23.95
2023-03-19T07:46:09.312Z,24.05
2023-03-19T07:48:42.144Z,24.25
2023-03-19T07:51:14.826Z,24.48
2023-03-19T07:53:49.037Z,25.88
2023-03-19T07:56:21.961Z,23.10
2023-03-19T07:58:54.696Z,23.65
2023-03-19T08:01:31.356Z,23.77
2023-03-19T08:04:06.381Z,23.48
2023-03-19T08:06:41.319Z,25.35
2023-03-19T08:09:25.536Z,24.02
2023-03-19T08:11:58.314Z,25.15
2023-03-19T08:14:31.067Z,23.45
2023-03-19T08:17:03.815Z,24.00
2023-03-19T08:22:09.420Z,22.33
2023-03-19T08:24:43.628Z,23.80
2023-03-19T08:27:16.842Z,22.30
2023-03-19T08:29:49.614Z,24.33
2023-03-19T08:32:22.566Z,23.10
2023-03-19T08:37:28.748Z,21.67
2023-03-19T08:40:03.011Z,23.17
2023-03-19T08:42:38.835Z,22.70
2023-03-19T08:45:13.766Z,22.88
2023-03-19T08:47:46.624Z,22.50
2023-03-19T08:52:52.752Z,22.60
2023-03-19T08:57:59.665Z,21.52
2023-03-19T09:03:06.952Z,21.83
2023-03-19T09:05:39.767Z,20.20
2023-03-19T09:10:46.762Z,21.25
2023-03-19T09:13:22.329Z,21.50
2023-03-19T09:15:55.397Z,21.45
2023-03-19T09:18:28.324Z,21.48
2023-03-19T09:23:34.116Z,20.80
2023-03-19T09:26:08.192Z,23.73
2023-03-19T09:28:41.159Z,19.65
2023-03-19T09:33:46.729Z,22.15
2023-03-19T09:36:19.487Z,19.63
2023-03-19T09:38:52.513Z,20.90
2023-03-19T09:41:33.991Z,19.65
2023-03-19T09:44:14.120Z,20.63
2023-03-19T09:46:53.625Z,19.67
2023-03-19T09:49:29.774Z,20.23
2023-03-19T09:52:16.319Z,20.33
2023-03-19T09:54:52.499Z,19.73
2023-03-19T09:57:29.785Z,23.08
2023-03-19T10:00:05.031Z,21.17
2023-03-19T10:02:41.831Z,20.13
2023-03-19T10:05:25.131Z,22.45
2023-03-19T10:11:04.767Z,22.00
2023-03-19T10:13:53.862Z,21.25
2023-03-19T10:16:29.994Z,21.75
2023-03-19T10:19:05.756Z,22.35
2023-03-19T10:21:42.241Z,20.58
2023-03-19T10:24:22.591Z,21.05
2023-03-19T10:27:00.304Z,19.90
2023-03-19T10:29:35.632Z,23.38
2023-03-19T10:32:18.302Z,22.30
2023-03-19T10:34:53.955Z,20.58
2023-03-19T10:37:30.020Z,21.30
2023-03-19T10:40:03.495Z,20.17
2023-03-19T10:42:46.076Z,20.33
2023-03-19T10:45:28.574Z,17.77
2023-03-19T10:48:03.801Z,19.70
2023-03-19T10:50:39.770Z,19.25
2023-03-19T10:53:31.442Z,19.20
2023-03-19T10:56:06.615Z,17.13
2023-03-19T10:58:40.449Z,17.92
2023-03-19T11:01:14.636Z,20.70
2023-03-19T11:03:52.846Z,20.48
2023-03-19T11:06:28.372Z,18.42
2023-03-19T11:09:02.593Z,20.73
2023-03-19T11:11:37.900Z,19.58
2023-03-19T11:14:19.302Z,20.52
2023-03-19T11:17:05.398Z,19.27
2023-03-19T11:19:42.342Z,18.33
2023-03-19T11:22:21.194Z,17.88
2023-03-19T11:24:56.396Z,18.15
2023-03-19T11:27:31.533Z,17.30
2023-03-19T11:30:15.105Z,18.85
2023-03-19T11:33:13.825Z,18.35
2023-03-19T11:35:52.663Z,18.08
2023-03-19T11:38:38.038Z,17.60
2023-03-19T11:41:20.463Z,16.90
2023-03-19T11:43:57.813Z,18.10
2023-03-19T11:46:41.741Z,19.40
2023-03-19T11:49:50.777Z,20.00
2023-03-19T11:52:31.188Z,20.13
2023-03-19T11:55:23.205Z,21.05
2023-03-19T11:58:09.325Z,18.17
2023-03-19T12:00:47.650Z,20.33
2023-03-19T12:03:53.842Z,20.27
2023-03-19T12:06:42.077Z,20.60
2023-03-19T12:09:28.301Z,19.95
2023-03-19T12:12:13.347Z,19.98
2023-03-19T12:14:59.380Z,21.17
2023-03-19T12:18:04.364Z,19.60
2023-03-19T12:20:47.497Z,19.00
2023-03-19T12:26:09.062Z,18.73
2023-03-19T12:28:45.824Z,18.42
2023-03-19T12:31:35.621Z,18.90
2023-03-19T12:34:20.815Z,19.35
2023-03-19T12:36:58.565Z,17.38
2023-03-19T12:39:37.525Z,15.02
2023-03-19T12:42:18.817Z,16.13
2023-03-19T12:44:56.895Z,16.88
2023-03-19T12:47:34.819Z,15.85
2023-03-19T12:50:10.672Z,14.68
2023-03-19T12:52:46.677Z,15.48
2023-03-19T12:55:23.611Z,15.68
2023-03-19T12:58:00.115Z,17.30
2023-03-19T13:00:35.823Z,16.20
2023-03-19T13:03:15.690Z,14.57
2023-03-19T13:05:54.045Z,14.82
2023-03-19T13:08:34.165Z,13.07
2023-03-19T13:11:14.883Z,14.15
2023-03-19T13:13:54.597Z,13.05
2023-03-19T13:16:34.913Z,11.65
2023-03-19T13:19:18.077Z,12.95
2023-03-19T13:21:54.479Z,13.00
2023-03-19T13:24:30.932Z,13.00
2023-03-19T13:27:08.278Z,12.65
2023-03-19T13:29:54.305Z,14.02
2023-03-19T13:32:37.130Z,13.23
2023-03-19T13:35:21.581Z,11.63
2023-03-19T13:37:59.021Z,13.85
2023-03-19T13:40:44.628Z,12.50
2023-03-19T13:43:43.996Z,13.02
2023-03-19T13:46:40.559Z,11.95
2023-03-19T13:49:28.819Z,12.02
2023-03-19T13:52:37.834Z,10.88
2023-03-19T13:55:34.439Z,11.18
2023-03-19T13:58:38.025Z,11.38
2023-03-19T14:01:33.797Z,10.35
2023-03-19T14:04:18.568Z,9.60
2023-03-19T14:06:54.366Z,9.02
2023-03-19T14:09:46.108Z,8.95
2023-03-19T14:12:32.953Z,8.85
2023-03-19T14:15:18.121Z,9.57
2023-03-19T14:18:07.187Z,8.48
2023-03-19T14:21:06.402Z,8.88
2023-03-19T14:23:47.223Z,7.45
2023-03-19T14:26:30.615Z,8.15
2023-03-19T14:29:07.325Z,8.73
2023-03-19T14:31:46.208Z,7.75
2023-03-19T14:34:23.179Z,8.07
2023-03-19T14:37:02.871Z,7.80
2023-03-19T14:39:40.972Z,8.25
2023-03-19T14:42:20.870Z,6.78
2023-03-19T14:45:32.522Z,7.95
2023-03-19T14:48:21.824Z,7.85
2023-03-19T14:51:36.017Z,8.00
2023-03-19T14:54:21.767Z,7.22
2023-03-19T14:56:57.532Z,7.72
2023-03-19T14:59:38.124Z,8.88
2023-03-19T15:02:22.794Z,8.75
2023-03-19T15:04:58.342Z,9.15
2023-03-19T15:07:38.459Z,8.40
2023-03-19T15:10:18.658Z,10.20
2023-03-19T15:13:19.854Z,11.82
2023-03-19T15:16:05.341Z,12.00
2023-03-19T15:18:38.842Z,11.80
2023-03-19T15:21:11.711Z,13.90
2023-03-19T15:23:47.818Z,12.02
2023-03-19T15:26:32.939Z,12.07
2023-03-19T15:29:05.911Z,12.77
2023-03-19T15:31:51.796Z,12.20
2023-03-19T15:34:30.743Z,12.55
2023-03-19T15:37:07.869Z,13.73
2023-03-19T15:39:46.175Z,12.50
2023-03-19T15:42:23.480Z,13.68
2023-03-19T15:45:03.668Z,13.07
2023-03-19T15:47:41.237Z,13.05
2023-03-19T15:50:17.052Z,12.00
2023-03-19T15:52:55.559Z,12.18
2023-03-19T15:55:28.750Z,11.95
2023-03-19T15:58:07.600Z,12.82
2023-03-19T16:00:42.201Z,12.45
2023-03-19T16:03:19.819Z,11.13
2023-03-19T16:05:59.643Z,10.35
2023-03-19T16:08:32.520Z,10.95
2023-03-19T16:13:57.999Z,8.70
2023-03-19T16:16:32.216Z,10.20
2023-03-19T16:19:05.243Z,8.93
2023-03-19T16:24:23.303Z,8.10
2023-03-19T16:26:58.347Z,9.32
2023-03-19T16:29:38.585Z,8.13
2023-03-19T16:32:20.840Z,9.02
2023-03-19T16:34:55.452Z,8.00
2023-03-19T16:37:33.902Z,7.03
2023-03-19T16:40:40.886Z,7.80
2023-03-19T16:43:19.561Z,7.22
2023-03-19T16:46:04.743Z,7.88
2023-03-19T16:48:37.508Z,6.25
2023-03-19T16:51:17.863Z,7.75
2023-03-19T16:53:51.129Z,6.03
2023-03-19T16:58:56.552Z,6.00
2023-03-19T17:01:31.416Z,6.20
2023-03-19T17:04:11.287Z,6.63
2023-03-19T17:06:44.155Z,5.35
2023-03-19T17:11:49.689Z,5.43
2023-03-19T17:16:57.232Z,6.00
2023-03-19T17:19:35.398Z,6.05
2023-03-19T17:22:13.194Z,5.43
2023-03-19T17:24:46.099Z,6.38
2023-03-19T17:27:18.795Z,6.50
2023-03-19T17:29:51.530Z,5.65
2023-03-19T17:32:25.923Z,5.57
2023-03-19T17:34:58.682Z,5.30
2023-03-19T17:37:32.283Z,6.07
2023-03-19T17:40:17.399Z,5.25
2023-03-19T17:42:51.905Z,5.57
2023-03-19T17:45:27.684Z,5.38
2023-03-19T17:48:02.011Z,5.30
2023-03-19T17:50:35.021Z,5.03
2023-03-19T17:53:11.736Z,5.47
2023-03-19T17:55:44.474Z,4.45
2023-03-19T17:58:19.150Z,5.40
2023-03-19T18:00:53.133Z,4.72
2023-03-19T18:03:28.952Z,4.78
2023-03-19T18:06:06.670Z,3.53
2023-03-19T18:08:39.459Z,3.72
2023-03-19T18:11:12.547Z,3.53
2023-03-19T18:13:45.268Z,4.32
2023-03-19T18:16:22.566Z,2.90
2023-03-19T18:19:00.363Z,3.35
2023-03-19T18:21:33.486Z,3.25
2023-03-19T18:24:09.104Z,3.35
2023-03-19T18:26:41.915Z,3.08
2023-03-19T18:29:16.380Z,2.75
2023-03-19T18:31:51.117Z,3.42
2023-03-19T18:34:26.477Z,3.00
2023-03-19T18:37:00.022Z,2.95
2023-03-19T18:39:36.331Z,2.90
2023-03-19T18:42:10.688Z,3.00
2023-03-19T18:44:44.221Z,2.53
2023-03-19T18:47:17.192Z,2.92
2023-03-19T18:52:26.785Z,2.53
2023-03-19T18:54:59.592Z,2.80
2023-03-19T18:57:32.478Z,2.85
2023-03-19T19:00:07.829Z,2.80
2023-03-19T19:02:40.618Z,2.95
2023-03-19T19:05:18.450Z,3.08
2023-03-19T19:07:51.486Z,2.75
2023-03-19T19:12:57.772Z,3.42
2023-03-19T19:15:33.808Z,2.28
2023-03-19T19:18:15.817Z,2.63
2023-03-19T19:20:52.487Z,2.60
2023-03-19T19:23:27.256Z,2.60
2023-03-19T19:26:00.117Z,2.42
2023-03-19T19:31:23.632Z,2.53
2023-03-19T19:33:56.842Z,2.15
2023-03-19T19:36:31.682Z,2.40
2023-03-19T19:39:04.724Z,2.30
2023-03-19T19:41:40.584Z,2.28
2023-03-19T19:44:19.874Z,2.67
2023-03-19T19:46:54.527Z,2.30
2023-03-19T19:49:27.208Z,2.13
2023-03-19T19:52:01.667Z,3.05
2023-03-19T19:54:37.096Z,2.42
2023-03-19T19:57:19.348Z,2.30
2023-03-19T19:59:53.488Z,2.63
2023-03-19T20:02:28.706Z,2.97
2023-03-19T20:05:01.487Z,2.45
2023-03-19T20:07:36.084Z,2.55
2023-03-19T20:10:09.870Z,2.17
2023-03-19T20:12:44.911Z,2.65
2023-03-19T20:15:20.576Z,2.60
2023-03-19T20:17:54.633Z,2.75
2023-03-19T20:20:31.349Z,2.72
2023-03-19T20:23:05.445Z,2.78
2023-03-19T20:25:38.506Z,2.78
2023-03-19T20:28:17.286Z,2.80
2023-03-19T20:30:53.752Z,2.95
2023-03-19T20:33:27.376Z,3.03
2023-03-19T20:36:00.578Z,2.75
2023-03-19T20:38:37.417Z,2.78
2023-03-19T20:41:20.216Z,3.22
2023-03-19T20:43:53.898Z,3.40
2023-03-19T20:46:26.693Z,3.17
2023-03-19T20:49:01.522Z,3.35
2023-03-19T20:51:34.305Z,3.88
2023-03-19T20:54:08.876Z,3.50
2023-03-19T20:56:43.039Z,4.30
2023-03-19T20:59:15.726Z,3.83
2023-03-19T21:01:48.533Z,3.70
2023-03-19T21:04:21.570Z,4.90
2023-03-19T21:09:28.797Z,3.78
2023-03-19T21:12:01.477Z,4.32
2023-03-19T21:14:34.799Z,5.80
2023-03-19T21:17:07.577Z,5.03
2023-03-19T21:19:42.685Z,5.03
2023-03-19T21:22:17.778Z,4.07
2023-03-19T21:24:54.394Z,4.68
2023-03-19T21:27:28.873Z,4.03
2023-03-19T21:30:05.311Z,4.53
2023-03-19T21:32:38.093Z,4.32
2023-03-19T21:37:52.358Z,4.25
2023-03-19T21:40:31.564Z,4.22
2023-03-19T21:43:05.000Z,4.32
2023-03-19T21:45:38.040Z,3.70
2023-03-19T21:48:24.303Z,4.03
2023-03-19T21:50:57.996Z,3.88
2023-03-19T21:53:31.169Z,4.03
2023-03-19T21:56:05.512Z,3.35
2023-03-19T21:58:38.172Z,4.10
2023-03-19T22:01:18.011Z,4.22
2023-03-19T22:03:51.586Z,3.60
2023-03-19T22:06:24.971Z,4.10
2023-03-19T22:08:57.697Z,3.67
2023-03-19T22:11:34.491Z,3.88
2023-03-19T22:14:13.087Z,4.28
2023-03-19T22:16:46.486Z,3.42
2023-03-19T22:19:19.230Z,4.38
2023-03-19T22:21:51.956Z,3.95
2023-03-19T22:24:24.698Z,3.95
2023-03-19T22:26:59.131Z,4.05
2023-03-19T22:29:34.003Z,4.13
2023-03-19T22:32:10.618Z,3.92
2023-03-19T22:34:43.619Z,4.95
2023-03-19T22:39:57.416Z,4.53
2023-03-19T22:45:04.351Z,5.70
2023-03-19T22:50:18.485Z,4.80
2023-03-19T22:52:51.853Z,4.72
2023-03-19T22:55:25.124Z,5.55
2023-03-19T22:57:59.285Z,5.70
2023-03-19T23:00:31.998Z,5.65
2023-03-19T23:03:06.887Z,5.65
2023-03-19T23:05:42.257Z,4.57
2023-03-19T23:08:18.009Z,5.57
2023-03-19T23:10:53.420Z,5.13
2023-03-19T23:13:27.512Z,5.70
2023-03-19T23:16:02.427Z,4.63
2023-03-19T23:18:37.597Z,5.00
2023-03-19T23:21:14.469Z,4.72
2023-03-19T23:23:47.712Z,5.60
2023-03-19T23:26:26.658Z,4.93
2023-03-19T23:29:07.999Z,5.45
2023-03-19T23:31:40.691Z,5.80
2023-03-19T23:34:13.614Z,4.97
2023-03-19T23:39:19.543Z,5.38
2023-03-19T23:41:56.911Z,4.88
2023-03-19T23:44:31.194Z,5.15
2023-03-19T23:47:03.980Z,4.80
2023-03-19T23:49:36.935Z,5.50
2023-03-19T23:54:47.596Z,5.90
2023-03-19T23:57:21.905Z,4.97
2023-03-19T23:59:56.760Z,5.95
